Time;durP1;ratioP1;P1;durP2;ratioP2;P2;SDS_P1;SDS_P2;PMS_P1;PMS_P2;Temp;Humidity;BMP_temperature;BMP_pressure;BME280_temperature;BME280_humidity;BME280_pressure;Samples;Min_cycle;Max_cycle;Signal;HPM_P1;HPM_P2
2021/12/06 00:02:38;;;;;;;;;45.50;36.00;;;;;9.22;76.13;100304.87;146606;583;46016;-75
2021/12/06 00:05:32;;;;;;;;;47.00;38.00;;;;;9.27;75.60;100309.38;146607;600;46020;-77
2021/12/06 00:08:25;;;;;;;;;34.75;29.50;;;;;9.31;75.69;100306.13;146606;704;46012;-77
2021/12/06 00:11:17;;;;;;;;;23.75;22.25;;;;;9.33;75.53;100294.16;146607;573;46010;-76
2021/12/06 00:14:10;;;;;;;;;26.00;22.50;;;;;9.34;75.02;100296.81;146607;601;46016;-76
2021/12/06 00:17:04;;;;;;;;;28.00;24.50;;;;;9.40;74.88;100301.41;146609;598;46010;-77
2021/12/06 00:19:56;;;;;;;;;23.75;22.25;;;;;9.46;74.67;100293.94;146602;608;47015;-74
2021/12/06 00:22:49;;;;;;;;;25.00;24.00;;;;;9.48;74.61;100298.37;146610;602;45028;-73
2021/12/06 00:25:41;;;;;;;;;29.00;26.75;;;;;9.53;73.81;100293.41;146606;580;46016;-72
2021/12/06 00:28:33;;;;;;;;;32.25;27.00;;;;;9.56;73.92;100303.91;146607;647;46021;-70
2021/12/06 00:31:25;;;;;;;;;26.75;25.25;;;;;9.58;73.33;100299.72;146604;665;46032;-70
2021/12/06 00:34:20;;;;;;;;;27.75;24.00;;;;;9.59;73.72;100295.41;146607;663;46010;-71
2021/12/06 00:37:28;;;;;;;;;23.00;20.50;;;;;9.62;73.56;100283.50;146601;572;47014;-73
2021/12/06 00:40:21;;;;;;;;;24.75;21.75;;;;;9.65;73.36;100282.78;146607;618;46010;-75
2021/12/06 00:43:13;;;;;;;;;21.75;17.75;;;;;9.62;73.32;100260.22;146604;570;46916;-73
2021/12/06 00:46:06;;;;;;;;;31.25;29.00;;;;;9.66;74.11;100264.75;146607;579;46020;-72
2021/12/06 00:48:58;;;;;;;;;24.25;21.00;;;;;9.68;73.52;100257.91;146606;578;46016;-73
2021/12/06 00:51:50;;;;;;;;;24.50;23.25;;;;;9.71;73.35;100262.34;146609;663;46010;-73
2021/12/06 00:54:43;;;;;;;;;24.00;23.25;;;;;9.74;73.17;100270.25;146606;679;46016;-71
2021/12/06 00:57:34;;;;;;;;;37.75;33.50;;;;;9.71;73.96;100278.78;146609;634;46011;-72
2021/12/06 01:00:48;;;;;;;;;47.50;37.00;;;;;7.55;73.56;99900.38;146606;674;46012;-73
2021/12/06 01:03:43;;;;;;;;;35.50;30.00;;;;;9.73;74.42;100275.38;146608;572;46010;-69
2021/12/06 01:06:35;;;;;;;;;35.00;32.00;;;;;9.69;73.87;100275.25;146605;638;46012;-72
2021/12/06 01:09:28;;;;;;;;;40.00;33.75;;;;;9.72;74.79;100279.69;146606;582;46010;-71
2021/12/06 01:12:20;;;;;;;;;27.75;24.25;;;;;9.72;75.11;100277.09;146608;613;46014;-70
2021/12/06 01:15:13;;;;;;;;;42.75;34.75;;;;;9.74;75.02;100284.91;146609;606;46020;-68
2021/12/06 01:18:06;;;;;;;;;44.75;37.00;;;;;9.79;74.55;100271.37;146606;624;46916;-68
2021/12/06 01:21:23;;;;;;;;;43.00;35.00;;;;;9.87;75.22;100270.00;146607;582;46021;-73
2021/12/06 01:24:20;;;;;;;;;27.50;25.50;;;;;9.96;74.74;100282.50;146606;575;46014;-73
2021/12/06 01:30:57;;;;;;;;;23.50;20.50;;;;;10.04;74.79;100286.34;146604;643;46913;-73
2021/12/06 01:40:20;;;;;;;;;37.50;32.00;;;;;10.19;76.12;100249.91;146606;647;46020;-71
2021/12/06 01:43:12;;;;;;;;;32.00;28.25;;;;;10.21;75.97;100256.03;146602;566;46016;-74
2021/12/06 01:46:06;;;;;;;;;34.75;26.00;;;;;10.25;75.71;100247.59;146606;614;46020;-70
2021/12/06 01:48:58;;;;;;;;;29.50;26.50;;;;;10.30;75.64;100238.34;146605;664;46016;-70
2021/12/06 01:51:52;;;;;;;;;28.50;25.75;;;;;10.37;75.66;100243.00;146609;605;46020;-69
2021/12/06 01:54:44;;;;;;;;;28.25;25.75;;;;;10.44;75.41;100238.97;146604;575;46016;-71
2021/12/06 01:57:37;;;;;;;;;35.75;30.75;;;;;10.51;75.63;100238.41;146608;595;46010;-69
2021/12/06 02:00:55;;;;;;;;;39.50;33.00;;;;;10.56;76.27;100244.69;146605;593;46012;-69
2021/12/06 02:03:48;;;;;;;;;38.75;33.00;;;;;9.47;75.42;100013.66;146608;723;46021;-73
2021/12/06 02:06:42;;;;;;;;;35.75;30.50;;;;;10.59;76.49;100220.56;146606;597;46016;-73
2021/12/06 02:09:34;;;;;;;;;37.75;33.25;;;;;10.61;75.25;100222.41;146608;569;45030;-72
2021/12/06 02:12:29;;;;;;;;;38.25;33.00;;;;;10.68;74.92;100217.50;146605;580;46916;-72
2021/12/06 02:15:43;;;;;;;;;38.75;34.75;;;;;10.76;75.21;100210.94;146607;707;46020;-75
2021/12/06 02:18:50;;;;;;;;;51.00;40.00;;;;;10.80;74.64;100203.34;146607;640;46016;-74
2021/12/06 02:21:43;;;;;;;;;48.25;39.50;;;;;10.84;76.22;100214.72;146609;595;46010;-72
2021/12/06 02:24:37;;;;;;;;;35.75;31.25;;;;;10.85;76.77;100199.22;146605;569;46017;-72
2021/12/06 02:27:32;;;;;;;;;27.75;22.00;;;;;10.88;75.83;100195.88;146607;718;46010;-72
2021/12/06 02:30:26;;;;;;;;;47.75;38.00;;;;;10.93;74.60;100203.84;146604;575;46016;-73
2021/12/06 02:33:18;;;;;;;;;29.00;27.00;;;;;11.01;73.24;100198.16;146609;565;45021;-73
2021/12/06 02:36:10;;;;;;;;;35.75;32.25;;;;;11.10;73.67;100197.66;146607;630;46012;-71
2021/12/06 02:39:03;;;;;;;;;40.00;32.75;;;;;11.16;73.97;100195.31;146603;707;46020;-74
2021/12/06 02:41:56;;;;;;;;;39.25;33.75;;;;;11.24;74.01;100203.37;146608;626;46016;-72
2021/12/06 02:44:50;;;;;;;;;36.00;29.75;;;;;11.24;74.15;100193.00;146608;606;46010;-71
2021/12/06 02:47:43;;;;;;;;;37.00;31.75;;;;;11.28;73.68;100193.19;146602;618;46016;-74
2021/12/06 02:50:51;;;;;;;;;34.75;31.50;;;;;11.32;73.09;100194.19;146609;609;46010;-74
2021/12/06 02:53:43;;;;;;;;;35.25;31.75;;;;;11.33;74.07;100196.84;146606;721;46012;-71
2021/12/06 02:59:48;;;;;;;;;35.25;31.25;;;;;11.35;74.23;100193.44;146604;584;46016;-71
2021/12/06 03:02:40;;;;;;;;;32.25;28.00;;;;;11.34;73.75;100192.56;146606;650;46020;-71
2021/12/06 03:05:33;;;;;;;;;31.00;29.00;;;;;11.32;74.76;100199.41;146610;624;46001;-71
2021/12/06 03:09:08;;;;;;;;;26.00;24.25;;;;;11.31;74.33;100179.47;146607;605;46020;-71
2021/12/06 03:12:04;;;;;;;;;27.50;24.00;;;;;11.30;75.10;100178.56;146606;594;46012;-71
2021/12/06 03:15:00;;;;;;;;;58.75;47.25;;;;;11.28;74.09;100188.00;146606;583;46020;-71
2021/12/06 03:17:53;;;;;;;;;46.75;37.50;;;;;11.30;73.90;100180.25;146606;577;46016;-71
2021/12/06 03:20:44;;;;;;;;;48.50;38.00;;;;;11.31;73.78;100188.12;146607;585;46020;-70
2021/12/06 03:23:37;;;;;;;;;45.25;35.50;;;;;11.32;73.79;100178.63;146605;586;46016;-72
2021/12/06 03:26:31;;;;;;;;;64.00;45.75;;;;;11.33;73.79;100190.78;146607;614;46031;-72
2021/12/06 03:29:24;;;;;;;;;41.75;34.50;;;;;11.30;74.70;100173.34;146608;635;46012;-76
2021/12/06 03:32:19;;;;;;;;;16.25;14.25;;;;;11.32;73.89;100174.31;146608;759;46020;-75
2021/12/06 03:35:13;;;;;;;;;14.25;14.25;;;;;11.42;74.76;100167.78;146607;619;46012;-75
2021/12/06 03:38:05;;;;;;;;;19.50;18.25;;;;;11.52;74.85;100162.09;146608;570;46020;-76
2021/12/06 03:40:57;;;;;;;;;18.75;16.50;;;;;11.60;73.44;100156.34;146607;577;46013;-75
2021/12/06 03:43:50;;;;;;;;;9.25;7.50;;;;;11.69;72.70;100154.09;146608;622;46010;-74
2021/12/06 03:46:44;;;;;;;;;6.00;6.00;;;;;11.82;71.79;100164.09;146608;631;46013;-74
2021/12/06 03:49:37;;;;;;;;;4.25;3.50;;;;;12.01;70.66;100153.56;146610;593;46020;-70
2021/12/06 03:52:30;;;;;;;;;1.00;1.00;;;;;12.26;69.90;100154.47;146605;651;46016;-71
2021/12/06 03:55:22;;;;;;;;;3.50;3.00;;;;;12.52;68.66;100157.94;146606;612;46015;-72
2021/12/06 03:58:15;;;;;;;;;4.00;2.00;;;;;12.70;67.71;100174.19;146605;655;46016;-72
2021/12/06 04:01:08;;;;;;;;;4.00;2.00;;;;;12.80;67.39;100162.37;146609;577;46010;-72
2021/12/06 04:04:01;;;;;;;;;0.75;0.75;;;;;12.89;66.93;100172.19;146605;721;46017;-73
2021/12/06 04:06:54;;;;;;;;;2.50;2.00;;;;;12.95;66.39;100162.00;146606;659;46020;-74
2021/12/06 04:09:46;;;;;;;;;2.00;2.00;;;;;13.05;66.64;100169.28;146605;564;46016;-73
2021/12/06 04:12:39;;;;;;;;;1.00;1.00;;;;;13.10;65.88;100183.31;146607;648;46020;-74
2021/12/06 04:15:33;;;;;;;;;2.00;1.75;;;;;13.17;66.44;100168.78;146605;571;46016;-70
2021/12/06 04:18:25;;;;;;;;;3.00;2.00;;;;;13.21;66.34;100178.47;146608;587;46021;-71
2021/12/06 04:21:18;;;;;;;;;3.00;1.50;;;;;13.25;65.64;100185.56;146604;563;47014;-71
2021/12/06 04:24:11;;;;;;;;;1.75;1.25;;;;;13.28;66.11;100172.63;146610;703;45020;-71
2021/12/06 04:27:13;;;;;;;;;0.50;0.50;;;;;13.34;66.09;100175.44;146605;678;46012;-70
2021/12/06 04:30:05;;;;;;;;;1.00;1.00;;;;;13.42;66.30;100178.25;146608;569;46020;-70
2021/12/06 04:32:59;;;;;;;;;2.00;1.33;;;;;13.49;66.24;100169.81;146607;622;46017;-71
2021/12/06 04:35:51;;;;;;;;;14.25;11.00;;;;;13.51;66.41;100168.12;146608;721;46010;-70
2021/12/06 04:38:44;;;;;;;;;6.75;5.25;;;;;13.49;66.77;100158.50;146607;628;46012;-70
2021/12/06 04:41:35;;;;;;;;;3.00;1.00;;;;;13.51;67.01;100164.66;146608;626;46020;-70
2021/12/06 04:44:28;;;;;;;;;2.25;2.25;;;;;13.54;66.78;100154.31;146605;660;46016;-70
2021/12/06 04:47:20;;;;;;;;;2.25;1.50;;;;;13.61;66.82;100156.25;146608;583;46021;-70
2021/12/06 04:50:15;;;;;;;;;3.50;2.00;;;;;13.67;66.66;100153.84;146608;594;45016;-70
2021/12/06 04:53:21;;;;;;;;;2.00;1.50;;;;;13.72;66.13;100156.59;146609;623;46010;-68
2021/12/06 04:56:33;;;;;;;;;4.00;2.75;;;;;13.75;65.71;100148.87;146606;594;46916;-68
2021/12/06 04:59:46;;;;;;;;;1.00;1.00;;;;;13.75;65.74;100160.16;146604;626;47920;-70
2021/12/06 05:02:41;;;;;;;;;0.67;0.67;;;;;13.82;65.53;100153.41;146608;582;46014;-70
2021/12/06 05:05:41;;;;;;;;;2.25;2.25;;;;;13.92;65.37;100152.81;146608;577;46020;-70
2021/12/06 05:08:38;;;;;;;;;4.00;2.00;;;;;13.95;65.16;100145.09;146606;654;46015;-70
2021/12/06 05:11:33;;;;;;;;;2.25;2.25;;;;;13.95;65.30;100144.22;146608;579;46020;-69
2021/12/06 05:14:25;;;;;;;;;0.75;0.75;;;;;13.93;65.27;100144.19;146604;569;46016;-70
2021/12/06 05:17:18;;;;;;;;;2.00;2.00;;;;;12.13;64.72;99843.00;146608;622;46021;-71
2021/12/06 05:20:12;;;;;;;;;1.00;1.00;;;;;13.86;64.94;100139.63;146606;598;46012;-69
2021/12/06 05:23:06;;;;;;;;;2.00;2.00;;;;;13.88;65.31;100144.91;146606;701;46010;-70
2021/12/06 05:25:58;;;;;;;;;2.33;2.33;;;;;13.85;65.61;100146.56;146607;597;46024;-68
2021/12/06 05:28:55;;;;;;;;;1.00;1.00;;;;;13.87;65.71;100144.00;146608;610;47010;-67
2021/12/06 05:31:55;;;;;;;;;0.00;0.00;;;;;13.92;65.58;100141.53;146605;575;46016;-69
2021/12/06 05:34:49;;;;;;;;;2.00;2.00;;;;;13.95;65.32;100134.66;146607;586;46020;-68
2021/12/06 05:37:45;;;;;;;;;0.33;0.33;;;;;13.99;64.91;100139.16;146608;602;46016;-69
2021/12/06 05:40:39;;;;;;;;;1.33;1.33;;;;;14.06;64.79;100156.72;146610;596;46010;-69
2021/12/06 05:43:31;;;;;;;;;1.00;1.00;;;;;14.11;64.94;100151.63;146604;569;46016;-68
2021/12/06 05:46:23;;;;;;;;;1.67;1.67;;;;;14.18;65.02;100161.41;146609;586;46021;-67
2021/12/06 05:49:15;;;;;;;;;2.67;2.33;;;;;14.23;65.08;100151.06;146606;654;47012;-68
2021/12/06 05:52:09;;;;;;;;;0.33;0.33;;;;;14.22;65.54;100163.25;146609;646;46010;-69
2021/12/06 05:55:01;;;;;;;;;2.33;0.67;;;;;14.26;65.75;100167.69;146606;567;46916;-71
2021/12/06 05:57:53;;;;;;;;;1.33;1.33;;;;;14.32;65.70;100172.19;146608;599;46020;-71
2021/12/06 06:00:45;;;;;;;;;5.33;2.00;;;;;14.33;65.75;100169.66;146605;576;46871;-68
2021/12/06 06:03:37;;;;;;;;;1.00;1.00;;;;;14.40;65.79;100165.47;146608;615;46020;-70
2021/12/06 06:06:29;;;;;;;;;3.00;1.00;;;;;14.45;66.40;100176.88;146606;613;46012;-69
2021/12/06 06:09:24;;;;;;;;;5.00;2.67;;;;;14.50;67.00;100175.31;146609;604;46010;-69
2021/12/06 06:12:16;;;;;;;;;3.33;2.00;;;;;14.59;66.55;100186.88;146606;629;46016;-69
2021/12/06 06:15:09;;;;;;;;;1.67;1.67;;;;;14.64;66.83;100161.75;146609;610;46010;-70
2021/12/06 06:18:03;;;;;;;;;2.00;2.00;;;;;14.69;66.49;100168.88;146605;576;46016;-69
2021/12/06 06:20:58;;;;;;;;;2.00;2.00;;;;;14.71;66.10;100167.19;146609;654;47010;-69
2021/12/06 06:23:50;;;;;;;;;2.00;2.00;;;;;14.74;65.83;100163.78;146607;596;45017;-70
2021/12/06 06:26:42;;;;;;;;;0.00;0.00;;;;;14.77;66.22;100192.56;146605;663;46020;-69
2021/12/06 06:29:35;;;;;;;;;0.33;0.00;;;;;14.86;65.30;100186.66;146606;574;47012;-72
2021/12/06 06:32:27;;;;;;;;;1.00;1.00;;;;;14.91;64.49;100183.34;146608;579;46010;-72
2021/12/06 06:35:21;;;;;;;;;3.00;2.67;;;;;14.97;64.54;100180.88;146603;563;46023;-71
2021/12/06 06:38:14;;;;;;;;;1.33;1.33;;;;;14.97;64.75;100186.09;146607;590;46020;-73
2021/12/06 06:41:06;;;;;;;;;2.67;1.67;;;;;15.01;64.10;100198.41;146605;644;46016;-72
2021/12/06 06:43:58;;;;;;;;;1.33;0.67;;;;;15.05;64.20;100199.38;146608;588;46020;-70
2021/12/06 06:46:52;;;;;;;;;2.67;1.00;;;;;15.07;64.13;100194.16;146609;693;46016;-70
2021/12/06 06:49:45;;;;;;;;;5.75;4.75;;;;;15.09;64.61;100195.97;146607;698;46029;-71
2021/12/06 06:52:37;;;;;;;;;0.50;0.50;;;;;15.09;65.14;100206.41;146603;627;47015;-71
2021/12/06 06:55:29;;;;;;;;;2.67;1.33;;;;;15.09;65.80;100203.81;146611;699;46010;-74
2021/12/06 06:58:21;;;;;;;;;1.33;0.33;;;;;15.11;66.20;100209.97;146605;569;46016;-74
2021/12/06 07:01:14;;;;;;;;;5.25;4.50;;;;;15.15;65.89;100203.09;146608;586;46010;-75
2021/12/06 07:04:07;;;;;;;;;8.00;5.25;;;;;15.19;65.82;100205.78;146605;618;47016;-79
2021/12/06 07:07:00;;;;;;;;;5.33;4.00;;;;;15.22;65.79;100207.59;146610;650;46010;-76
2021/12/06 07:09:52;;;;;;;;;3.00;3.00;;;;;15.26;65.75;100201.59;146608;573;46016;-75
2021/12/06 07:12:48;;;;;;;;;3.25;2.25;;;;;15.26;66.18;100204.19;146609;608;46010;-75
2021/12/06 07:15:41;;;;;;;;;5.50;4.25;;;;;15.29;65.98;100213.84;146604;647;47014;-74
2021/12/06 07:18:33;;;;;;;;;3.67;2.33;;;;;15.28;66.17;100217.31;146610;624;45027;-75
2021/12/06 07:21:25;;;;;;;;;3.00;3.00;;;;;15.31;66.20;100214.78;146607;638;46012;-71
2021/12/06 07:24:18;;;;;;;;;4.33;2.67;;;;;15.39;66.17;100201.06;146610;647;46010;-78
2021/12/06 07:27:11;;;;;;;;;2.00;2.00;;;;;15.60;65.56;100210.22;146605;644;46016;-70
2021/12/06 07:30:03;;;;;;;;;4.00;3.00;;;;;15.93;64.54;100197.94;146607;572;47010;-68
2021/12/06 07:32:56;;;;;;;;;3.00;3.00;;;;;16.33;63.51;100198.75;146607;621;46016;-69
2021/12/06 07:35:48;;;;;;;;;1.67;1.67;;;;;16.73;62.06;100201.19;146609;638;46020;-68
2021/12/06 07:38:41;;;;;;;;;4.00;4.00;;;;;17.13;59.91;100207.16;146606;582;46017;-68
2021/12/06 07:41:34;;;;;;;;;2.33;1.67;;;;;17.38;59.73;100200.56;146609;570;46020;-68
2021/12/06 07:44:26;;;;;;;;;2.00;2.00;;;;;17.59;58.66;100190.41;146607;574;46017;-68
2021/12/06 07:47:19;;;;;;;;;2.00;2.00;;;;;17.77;59.22;100209.03;146612;599;45020;-70
2021/12/06 07:50:15;;;;;;;;;3.33;3.00;;;;;17.94;58.93;100205.75;146606;568;46016;-69
2021/12/06 07:53:07;;;;;;;;;3.33;2.00;;;;;18.08;57.29;100209.44;146608;630;46010;-68
2021/12/06 07:55:59;;;;;;;;;3.33;3.33;;;;;18.12;56.66;100203.37;146606;704;46014;-67
2021/12/06 07:58:52;;;;;;;;;7.33;5.67;;;;;18.07;56.73;100206.78;146607;588;46011;-68
2021/12/06 08:01:44;;;;;;;;;6.67;5.67;;;;;18.04;58.18;100202.41;146609;655;46016;-67
2021/12/06 08:04:38;;;;;;;;;4.00;2.33;;;;;18.06;57.96;100190.19;146607;602;46014;-68
2021/12/06 08:07:31;;;;;;;;;3.00;3.00;;;;;18.10;57.41;100193.72;146606;665;46016;-66
2021/12/06 08:10:23;;;;;;;;;1.67;1.67;;;;;18.11;56.26;100199.00;146610;646;46010;-67
2021/12/06 08:13:21;;;;;;;;;2.00;2.00;;;;;18.13;57.42;100189.41;146604;587;46016;-66
2021/12/06 08:16:25;;;;;;;;;2.67;2.67;;;;;18.12;57.33;100202.50;146609;564;46010;-67
2021/12/06 08:19:18;;;;;;;;;3.00;1.67;;;;;18.03;57.18;100194.50;146607;574;46915;-67
2021/12/06 08:22:10;;;;;;;;;3.00;2.00;;;;;17.97;56.56;100190.97;146610;605;46010;-67
2021/12/06 08:25:02;;;;;;;;;1.33;1.00;;;;;17.90;57.68;100201.34;146607;628;46016;-67
2021/12/06 08:27:56;;;;;;;;;1.33;1.33;;;;;17.90;57.63;100199.59;146609;656;46010;-66
2021/12/06 08:30:48;;;;;;;;;4.33;3.33;;;;;17.95;57.83;100197.94;146606;595;46029;-67
2021/12/06 08:33:41;;;;;;;;;4.33;2.00;;;;;17.90;58.83;100202.22;146608;673;46010;-67
2021/12/06 08:36:34;;;;;;;;;2.67;2.33;;;;;17.96;58.22;100198.81;146606;597;46013;-66
2021/12/06 08:39:26;;;;;;;;;2.00;2.00;;;;;17.91;56.90;100197.84;146609;572;46020;-66
2021/12/06 08:42:18;;;;;;;;;1.00;0.67;;;;;17.73;58.36;100204.59;146604;569;46016;-67
2021/12/06 08:45:11;;;;;;;;;3.33;2.67;;;;;17.56;59.50;100192.97;146613;567;45021;-66
2021/12/06 08:48:04;;;;;;;;;4.00;1.00;;;;;17.53;59.44;100199.06;146606;585;46014;-67
2021/12/06 08:50:58;;;;;;;;;2.67;2.00;;;;;17.60;59.91;100168.59;146610;629;46011;-66
2021/12/06 08:53:51;;;;;;;;;2.33;1.00;;;;;18.04;58.13;100197.16;146607;565;46016;-67
2021/12/06 08:56:44;;;;;;;;;3.33;3.33;;;;;18.31;57.96;100199.22;146608;573;46020;-66
2021/12/06 08:59:36;;;;;;;;;1.00;1.00;;;;;18.51;54.98;100185.44;146606;569;46017;-66
2021/12/06 09:02:28;;;;;;;;;2.00;2.00;;;;;18.65;56.15;100181.19;146607;569;47014;-65
2021/12/06 09:05:21;;;;;;;;;3.00;2.33;;;;;18.85;57.46;100169.19;146606;665;47013;-66
2021/12/06 09:08:13;;;;;;;;;2.33;2.33;;;;;18.97;56.17;100178.91;146610;608;46010;-67
2021/12/06 09:11:06;;;;;;;;;2.00;2.00;;;;;19.16;57.13;100161.56;146604;568;47012;-67
2021/12/06 09:13:59;;;;;;;;;1.00;1.00;;;;;19.31;55.80;100147.59;146610;564;46021;-65
2021/12/06 09:16:52;;;;;;;;;2.00;2.00;;;;;19.52;56.23;100162.66;146605;599;47012;-65
2021/12/06 09:19:44;;;;;;;;;2.00;2.00;;;;;19.69;55.59;100140.00;146605;575;47010;-66
2021/12/06 09:22:36;;;;;;;;;1.00;1.00;;;;;19.77;54.95;100132.13;146606;608;46012;-67
2021/12/06 09:25:30;;;;;;;;;2.00;2.00;;;;;19.88;54.94;100124.28;146607;573;46020;-66
2021/12/06 09:28:25;;;;;;;;;1.33;0.00;;;;;20.05;54.91;100123.44;146608;582;46016;-69
2021/12/06 09:31:19;;;;;;;;;7.00;7.00;;;;;20.33;51.09;100126.16;146608;590;47010;-67
2021/12/06 09:34:11;;;;;;;;;3.00;2.00;;;;;20.56;53.20;100114.81;146607;581;45581;-67
2021/12/06 09:37:04;;;;;;;;;1.67;1.00;;;;;20.55;51.41;100110.41;146609;569;46021;-68
2021/12/06 09:39:57;;;;;;;;;2.00;2.00;;;;;20.47;53.84;100094.59;146606;677;46014;-68
2021/12/06 09:42:52;;;;;;;;;4.33;2.00;;;;;20.63;53.78;100093.75;146610;569;46021;-70
2021/12/06 09:45:46;;;;;;;;;3.00;2.00;;;;;20.91;52.58;100073.53;146603;606;46016;-70
2021/12/06 09:48:39;;;;;;;;;0.67;0.67;;;;;21.18;51.88;100079.62;146608;610;46020;-68
2021/12/06 09:51:32;;;;;;;;;1.67;1.67;;;;;21.40;51.58;100068.19;146607;684;46017;-68
2021/12/06 09:54:30;;;;;;;;;1.67;1.67;;;;;21.61;51.87;100066.34;146607;680;46010;-68
2021/12/06 09:57:23;;;;;;;;;2.33;1.33;;;;;21.73;47.45;100057.50;146608;576;46013;-69
2021/12/06 10:04:03;;;;;;;;;0.00;0.00;;;;;21.84;50.63;100056.56;146606;589;47017;-69
2021/12/06 10:06:56;;;;;;;;;0.67;0.67;;;;;21.80;45.27;100061.84;146612;613;47010;-69
2021/12/06 10:09:51;;;;;;;;;3.33;0.00;;;;;21.64;44.85;100061.03;146609;571;46012;-69
2021/12/06 10:12:48;;;;;;;;;2.00;2.00;;;;;21.51;49.11;100054.94;146609;566;46021;-70
2021/12/06 10:15:43;;;;;;;;;1.00;1.00;;;;;21.42;48.98;100039.16;146607;606;46016;-69
2021/12/06 10:18:36;;;;;;;;;3.00;1.33;;;;;21.37;45.18;100026.00;146612;577;46010;-69
2021/12/06 10:21:29;;;;;;;;;2.33;1.33;;;;;21.25;46.42;100025.16;146608;578;46016;-69
2021/12/06 10:24:26;;;;;;;;;2.00;1.33;;;;;21.03;43.46;100034.84;146606;563;47010;-69
2021/12/06 10:27:19;;;;;;;;;2.67;1.00;;;;;20.90;46.38;100023.44;146609;698;46013;-69
2021/12/06 10:30:15;;;;;;;;;1.33;0.67;;;;;20.78;45.52;100027.00;146613;582;46010;-68
2021/12/06 10:33:14;;;;;;;;;1.00;1.00;;;;;20.67;45.62;99998.03;146605;569;46016;-68
2021/12/06 10:36:15;;;;;;;;;1.33;1.00;;;;;20.73;48.58;99994.50;146608;606;46021;-68
2021/12/06 10:39:12;;;;;;;;;2.00;2.00;;;;;20.74;44.80;99989.22;146604;586;46016;-69
2021/12/06 10:42:06;;;;;;;;;2.67;2.00;;;;;20.77;44.86;99988.34;146609;581;46021;-68
2021/12/06 10:44:58;;;;;;;;;1.00;1.00;;;;;20.84;45.68;99983.94;146606;596;46920;-69
2021/12/06 10:48:22;;;;;;;;;3.00;1.00;;;;;20.02;45.59;99809.41;146608;631;46010;-69
2021/12/06 10:51:23;;;;;;;;;3.00;0.00;;;;;20.72;44.60;99976.97;146610;578;46012;-68
2021/12/06 10:54:35;;;;;;;;;2.00;1.33;;;;;20.59;46.57;99989.28;146608;569;46012;-68
2021/12/06 10:57:46;;;;;;;;;2.00;0.67;;;;;20.43;46.66;99956.75;146608;669;46012;-68
2021/12/06 11:00:54;;;;;;;;;0.67;0.67;;;;;20.48;49.44;99964.66;146611;650;46010;-69
2021/12/06 11:03:52;;;;;;;;;1.67;1.33;;;;;20.55;46.91;99945.38;146606;662;46920;-68
2021/12/06 11:06:48;;;;;;;;;0.33;0.33;;;;;20.43;44.42;99948.84;146609;563;46034;-68
2021/12/06 11:09:46;;;;;;;;;2.00;0.67;;;;;20.29;45.42;99943.62;146606;577;47012;-68
2021/12/06 11:12:39;;;;;;;;;1.33;1.00;;;;;20.38;48.32;99933.97;146611;634;45580;-68
2021/12/06 11:15:31;;;;;;;;;1.33;1.33;;;;;20.47;45.79;99931.31;146607;596;46012;-68
2021/12/06 11:18:39;;;;;;;;;4.33;1.67;;;;;20.56;46.64;99917.28;146610;631;46010;-69
2021/12/06 11:22:04;;;;;;;;;1.67;0.67;;;;;19.70;44.82;99763.00;146606;596;46920;-68
2021/12/06 11:24:58;;;;;;;;;2.00;2.00;;;;;20.61;43.08;99921.66;146604;612;46022;-69
2021/12/06 11:27:50;;;;;;;;;5.67;5.00;;;;;19.19;43.48;99670.12;146609;575;46012;-69
2021/12/06 11:30:43;;;;;;;;;11.00;7.67;;;;;20.71;43.73;99911.97;146612;570;46010;-69
2021/12/06 11:33:38;;;;;;;;;8.00;7.00;;;;;20.75;42.56;99917.22;146606;589;46015;-68
2021/12/06 11:36:31;;;;;;;;;0.33;0.33;;;;;20.86;44.07;99906.66;146610;583;46028;-68
2021/12/06 11:39:26;;;;;;;;;1.00;1.00;;;;;20.92;43.09;99911.91;146605;583;46016;-70
2021/12/06 11:42:19;;;;;;;;;1.67;1.67;;;;;21.04;44.96;99900.44;146609;666;46010;-68
2021/12/06 11:45:12;;;;;;;;;4.67;3.33;;;;;21.05;41.56;99901.31;146603;572;46016;-69
2021/12/06 11:48:09;;;;;;;;;1.00;1.00;;;;;21.17;43.56;99904.75;146609;623;46020;-69
2021/12/06 11:51:19;;;;;;;;;1.33;0.33;;;;;21.30;45.40;99889.75;146608;582;46016;-68
2021/12/06 11:54:14;;;;;;;;;4.00;1.00;;;;;21.47;42.05;99887.06;146605;603;46020;-68
2021/12/06 11:57:23;;;;;;;;;3.67;1.33;;;;;21.48;41.85;99880.88;146607;625;46013;-69
2021/12/06 12:00:22;;;;;;;;;0.00;0.00;;;;;21.36;41.18;99880.97;146610;607;46012;-69
2021/12/06 12:03:14;;;;;;;;;2.33;1.33;;;;;21.08;41.70;99867.91;146607;596;46016;-69
2021/12/06 12:06:23;;;;;;;;;1.00;0.33;;;;;20.74;42.03;99848.72;146609;579;46020;-69
2021/12/06 12:09:33;;;;;;;;;3.00;3.00;;;;;20.32;44.05;99837.44;146603;602;46920;-70
2021/12/06 12:12:25;;;;;;;;;1.00;1.00;;;;;19.98;43.32;99837.50;146606;606;46021;-69
2021/12/06 12:15:17;;;;;;;;;3.33;2.67;;;;;19.71;44.72;99848.91;146605;616;46016;-68
2021/12/06 12:18:10;;;;;;;;;3.00;2.00;;;;;19.67;46.41;99823.47;146609;566;46011;-69
2021/12/06 12:21:02;;;;;;;;;2.00;2.00;;;;;19.54;47.17;99832.22;146606;627;46919;-70
2021/12/06 12:23:54;;;;;;;;;2.00;2.00;;;;;19.52;47.88;99828.72;146609;563;46010;-69
2021/12/06 12:26:59;;;;;;;;;4.00;2.00;;;;;19.42;48.65;99827.81;146607;571;46016;-69
2021/12/06 12:29:54;;;;;;;;;1.67;0.33;;;;;19.38;49.98;99823.44;146607;575;46020;-70
2021/12/06 12:32:46;;;;;;;;;1.33;1.00;;;;;19.36;49.97;99831.31;146606;625;46016;-70
2021/12/06 12:35:41;;;;;;;;;1.33;1.33;;;;;19.58;49.71;99821.69;146609;572;46010;-69
2021/12/06 12:38:36;;;;;;;;;4.67;4.00;;;;;19.88;49.19;99803.31;146608;625;46016;-70
2021/12/06 12:41:33;;;;;;;;;8.33;7.33;;;;;19.96;48.46;99798.91;146607;649;46021;-70
2021/12/06 12:44:26;;;;;;;;;4.67;3.33;;;;;19.90;49.84;99797.16;146608;563;46016;-69
2021/12/06 12:47:26;;;;;;;;;5.33;2.67;;;;;19.83;48.48;99785.75;146608;628;47010;-70
2021/12/06 12:50:19;;;;;;;;;5.00;3.67;;;;;19.79;48.64;99770.00;146605;584;46016;-69
2021/12/06 12:53:18;;;;;;;;;6.67;4.00;;;;;19.74;48.89;99766.50;146611;594;46010;-69
2021/12/06 12:56:25;;;;;;;;;2.00;2.00;;;;;19.72;50.07;99771.78;146607;565;47014;-69
2021/12/06 12:59:26;;;;;;;;;8.00;4.33;;;;;19.67;48.84;99765.63;146608;628;46020;-69
2021/12/06 13:02:38;;;;;;;;;5.33;5.33;;;;;19.70;50.09;99768.25;146605;606;46920;-69
2021/12/06 13:05:34;;;;;;;;;3.67;2.67;;;;;19.69;47.96;99777.03;146609;720;46012;-70
2021/12/06 13:08:39;;;;;;;;;1.67;1.67;;;;;19.58;48.47;99781.38;146607;647;46016;-68
2021/12/06 13:12:08;;;;;;;;;2.67;2.67;;;;;19.45;47.32;99777.88;146606;578;46021;-69
2021/12/06 13:15:19;;;;;;;;;3.33;0.67;;;;;19.34;48.49;99776.97;146608;682;46016;-69
2021/12/06 13:18:54;;;;;;;;;7.33;6.00;;;;;19.30;48.05;99770.84;146605;624;46916;-69
2021/12/06 13:21:54;;;;;;;;;3.67;1.67;;;;;19.30;47.51;99762.97;146606;608;46016;-69
2021/12/06 13:25:01;;;;;;;;;5.33;2.67;;;;;19.31;48.15;99776.97;146608;658;46021;-70
2021/12/06 13:28:19;;;;;;;;;2.00;2.00;;;;;18.23;49.88;99606.09;146608;585;46016;-69
2021/12/06 13:31:12;;;;;;;;;2.33;2.00;;;;;19.26;49.18;99773.50;146610;583;46010;-69
2021/12/06 13:34:20;;;;;;;;;0.67;0.67;;;;;19.21;50.25;99786.63;146606;705;46014;-70
2021/12/06 13:37:13;;;;;;;;;3.33;1.00;;;;;19.23;51.73;99799.78;146608;586;46010;-68
2021/12/06 13:40:22;;;;;;;;;2.00;0.33;;;;;19.24;48.86;99764.72;146609;577;46014;-69
2021/12/06 13:43:20;;;;;;;;;0.00;0.00;;;;;19.29;47.64;99760.34;146608;613;46020;-68
2021/12/06 13:46:32;;;;;;;;;0.67;0.33;;;;;19.28;48.52;99758.59;146608;599;46012;-70
2021/12/06 13:49:25;;;;;;;;;2.00;2.00;;;;;19.22;49.01;99750.69;146611;573;46010;-70
2021/12/06 13:52:17;;;;;;;;;1.67;0.33;;;;;19.17;49.97;99758.59;146606;677;46014;-70
2021/12/06 13:55:29;;;;;;;;;2.33;1.33;;;;;19.16;50.51;99751.59;146608;597;46011;-69